sensor_id;sensor_type;location;lat;lon;timestamp;P1;durP1;ratioP1;P2;durP2;ratioP2
74177;SDS011;62540;48.456;-4.456;2022-10-31T00:02:01;3.25;;;0.75;;
74177;SDS011;62540;48.456;-4.456;2022-10-31T00:04:27;3.25;;;0.75;;
74177;SDS011;62540;48.456;-4.456;2022-10-31T00:06:52;1.25;;;0.75;;
74177;SDS011;62540;48.456;-4.456;2022-10-31T00:09:18;0.00;;;0.00;;
74177;SDS011;62540;48.456;-4.456;2022-10-31T00:11:43;0.00;;;0.00;;
74177;SDS011;62540;48.456;-4.456;2022-10-31T00:14:08;0.75;;;0.50;;
74177;SDS011;62540;48.456;-4.456;2022-10-31T00:16:34;1.50;;;0.00;;
74177;SDS011;62540;48.456;-4.456;2022-10-31T00:19:01;1.75;;;1.25;;
74177;SDS011;62540;48.456;-4.456;2022-10-31T00:21:28;1.00;;;1.00;;
74177;SDS011;62540;48.456;-4.456;2022-10-31T00:23:55;0.25;;;0.00;;
74177;SDS011;62540;48.456;-4.456;2022-10-31T00:26:22;2.00;;;0.75;;
74177;SDS011;62540;48.456;-4.456;2022-10-31T00:28:48;0.75;;;0.75;;
74177;SDS011;62540;48.456;-4.456;2022-10-31T00:31:14;1.50;;;0.75;;
74177;SDS011;62540;48.456;-4.456;2022-10-31T00:33:40;1.75;;;1.75;;
74177;SDS011;62540;48.456;-4.456;2022-10-31T00:36:07;1.50;;;1.00;;
74177;SDS011;62540;48.456;-4.456;2022-10-31T00:38:36;1.75;;;0.75;;
74177;SDS011;62540;48.456;-4.456;2022-10-31T00:41:01;1.25;;;0.25;;
74177;SDS011;62540;48.456;-4.456;2022-10-31T00:43:26;0.75;;;0.75;;
74177;SDS011;62540;48.456;-4.456;2022-10-31T00:45:52;2.50;;;0.75;;
74177;SDS011;62540;48.456;-4.456;2022-10-31T00:48:17;1.00;;;1.00;;
74177;SDS011;62540;48.456;-4.456;2022-10-31T00:50:43;1.50;;;0.75;;
74177;SDS011;62540;48.456;-4.456;2022-10-31T00:53:08;1.75;;;0.75;;
74177;SDS011;62540;48.456;-4.456;2022-10-31T00:55:33;0.75;;;0.75;;
74177;SDS011;62540;48.456;-4.456;2022-10-31T00:57:59;1.00;;;0.75;;
74177;SDS011;62540;48.456;-4.456;2022-10-31T01:00:25;1.00;;;0.75;;
74177;SDS011;62540;48.456;-4.456;2022-10-31T01:02:50;3.50;;;1.50;;
74177;SDS011;62540;48.456;-4.456;2022-10-31T01:05:16;5.25;;;2.00;;
74177;SDS011;62540;48.456;-4.456;2022-10-31T01:07:41;0.75;;;0.75;;
74177;SDS011;62540;48.456;-4.456;2022-10-31T01:10:08;4.25;;;0.00;;
74177;SDS011;62540;48.456;-4.456;2022-10-31T01:12:42;0.25;;;0.00;;
74177;SDS011;62540;48.456;-4.456;2022-10-31T01:15:10;3.00;;;0.75;;
74177;SDS011;62540;48.456;-4.456;2022-10-31T01:17:37;2.75;;;0.75;;
74177;SDS011;62540;48.456;-4.456;2022-10-31T01:20:03;0.50;;;0.50;;
74177;SDS011;62540;48.456;-4.456;2022-10-31T01:22:30;0.75;;;0.75;;
74177;SDS011;62540;48.456;-4.456;2022-10-31T01:24:55;1.75;;;0.00;;
74177;SDS011;62540;48.456;-4.456;2022-10-31T01:27:21;1.25;;;0.75;;
74177;SDS011;62540;48.456;-4.456;2022-10-31T01:29:46;0.50;;;0.50;;
74177;SDS011;62540;48.456;-4.456;2022-10-31T01:32:12;0.50;;;0.50;;
74177;SDS011;62540;48.456;-4.456;2022-10-31T01:34:37;0.00;;;0.00;;
74177;SDS011;62540;48.456;-4.456;2022-10-31T01:37:02;0.75;;;0.75;;
74177;SDS011;62540;48.456;-4.456;2022-10-31T01:39:28;0.50;;;0.50;;
74177;SDS011;62540;48.456;-4.456;2022-10-31T01:41:53;1.00;;;0.00;;
74177;SDS011;62540;48.456;-4.456;2022-10-31T01:49:15;0.25;;;0.00;;
74177;SDS011;62540;48.456;-4.456;2022-10-31T01:52:03;1.00;;;0.50;;
74177;SDS011;62540;48.456;-4.456;2022-10-31T01:54:32;0.33;;;0.00;;
74177;SDS011;62540;48.456;-4.456;2022-10-31T01:57:00;1.50;;;1.00;;
74177;SDS011;62540;48.456;-4.456;2022-10-31T01:59:28;1.00;;;1.00;;
74177;SDS011;62540;48.456;-4.456;2022-10-31T02:01:57;0.75;;;0.00;;
74177;SDS011;62540;48.456;-4.456;2022-10-31T02:04:23;0.00;;;0.00;;
74177;SDS011;62540;48.456;-4.456;2022-10-31T02:06:58;0.25;;;0.00;;
74177;SDS011;62540;48.456;-4.456;2022-10-31T02:09:45;0.00;;;0.00;;
74177;SDS011;62540;48.456;-4.456;2022-10-31T02:12:14;2.00;;;0.50;;
74177;SDS011;62540;48.456;-4.456;2022-10-31T02:14:41;2.25;;;0.50;;
74177;SDS011;62540;48.456;-4.456;2022-10-31T02:17:07;1.00;;;1.00;;
74177;SDS011;62540;48.456;-4.456;2022-10-31T02:19:39;1.75;;;0.50;;
74177;SDS011;62540;48.456;-4.456;2022-10-31T02:33:31;2.25;;;0.50;;
74177;SDS011;62540;48.456;-4.456;2022-10-31T02:39:07;0.25;;;0.25;;
74177;SDS011;62540;48.456;-4.456;2022-10-31T02:41:48;1.50;;;0.50;;
74177;SDS011;62540;48.456;-4.456;2022-10-31T02:44:29;3.75;;;0.25;;
74177;SDS011;62540;48.456;-4.456;2022-10-31T02:49:48;1.25;;;0.50;;
74177;SDS011;62540;48.456;-4.456;2022-10-31T02:52:26;0.50;;;0.00;;
74177;SDS011;62540;48.456;-4.456;2022-10-31T02:54:53;1.00;;;0.25;;
74177;SDS011;62540;48.456;-4.456;2022-10-31T02:57:20;1.75;;;0.00;;
74177;SDS011;62540;48.456;-4.456;2022-10-31T02:59:58;0.00;;;0.00;;
74177;SDS011;62540;48.456;-4.456;2022-10-31T03:07:54;1.75;;;0.25;;
74177;SDS011;62540;48.456;-4.456;2022-10-31T03:15:44;0.00;;;0.00;;
74177;SDS011;62540;48.456;-4.456;2022-10-31T03:18:14;0.00;;;0.00;;
74177;SDS011;62540;48.456;-4.456;2022-10-31T03:20:48;0.75;;;0.00;;
74177;SDS011;62540;48.456;-4.456;2022-10-31T03:23:19;1.00;;;0.00;;
74177;SDS011;62540;48.456;-4.456;2022-10-31T03:25:48;1.25;;;1.00;;
74177;SDS011;62540;48.456;-4.456;2022-10-31T03:28:15;1.00;;;0.00;;
74177;SDS011;62540;48.456;-4.456;2022-10-31T03:30:44;1.00;;;0.00;;
74177;SDS011;62540;48.456;-4.456;2022-10-31T03:33:13;0.50;;;0.50;;
74177;SDS011;62540;48.456;-4.456;2022-10-31T03:35:42;0.25;;;0.25;;
74177;SDS011;62540;48.456;-4.456;2022-10-31T03:38:12;1.00;;;0.00;;
74177;SDS011;62540;48.456;-4.456;2022-10-31T03:40:40;1.50;;;0.00;;
74177;SDS011;62540;48.456;-4.456;2022-10-31T03:43:10;0.75;;;0.00;;
74177;SDS011;62540;48.456;-4.456;2022-10-31T03:45:41;1.00;;;1.00;;
74177;SDS011;62540;48.456;-4.456;2022-10-31T03:48:10;1.00;;;0.00;;
74177;SDS011;62540;48.456;-4.456;2022-10-31T03:50:47;0.75;;;0.25;;
74177;SDS011;62540;48.456;-4.456;2022-10-31T03:53:24;0.25;;;0.00;;
74177;SDS011;62540;48.456;-4.456;2022-10-31T03:56:41;1.00;;;0.00;;
74177;SDS011;62540;48.456;-4.456;2022-10-31T03:58:46;0.00;;;0.00;;
74177;SDS011;62540;48.456;-4.456;2022-10-31T04:01:19;0.50;;;0.00;;
74177;SDS011;62540;48.456;-4.456;2022-10-31T04:03:46;0.75;;;0.00;;
74177;SDS011;62540;48.456;-4.456;2022-10-31T04:06:14;0.50;;;0.00;;
74177;SDS011;62540;48.456;-4.456;2022-10-31T04:08:44;0.00;;;0.00;;
74177;SDS011;62540;48.456;-4.456;2022-10-31T04:11:25;0.00;;;0.00;;
74177;SDS011;62540;48.456;-4.456;2022-10-31T04:13:55;1.00;;;1.00;;
74177;SDS011;62540;48.456;-4.456;2022-10-31T04:16:23;0.75;;;0.00;;
74177;SDS011;62540;48.456;-4.456;2022-10-31T04:18:49;2.75;;;0.25;;
74177;SDS011;62540;48.456;-4.456;2022-10-31T04:21:15;1.25;;;0.00;;
74177;SDS011;62540;48.456;-4.456;2022-10-31T04:23:41;0.00;;;0.00;;
74177;SDS011;62540;48.456;-4.456;2022-10-31T04:26:07;2.00;;;2.00;;
74177;SDS011;62540;48.456;-4.456;2022-10-31T04:28:35;4.75;;;4.75;;
74177;SDS011;62540;48.456;-4.456;2022-10-31T04:31:00;5.75;;;5.25;;
74177;SDS011;62540;48.456;-4.456;2022-10-31T04:33:26;17.00;;;14.00;;
74177;SDS011;62540;48.456;-4.456;2022-10-31T04:35:51;22.25;;;19.25;;
74177;SDS011;62540;48.456;-4.456;2022-10-31T04:38:17;26.50;;;21.25;;
74177;SDS011;62540;48.456;-4.456;2022-10-31T04:40:42;25.25;;;22.25;;
74177;SDS011;62540;48.456;-4.456;2022-10-31T04:43:07;17.25;;;15.00;;
74177;SDS011;62540;48.456;-4.456;2022-10-31T04:45:33;14.50;;;14.00;;
74177;SDS011;62540;48.456;-4.456;2022-10-31T04:47:58;7.25;;;6.25;;
74177;SDS011;62540;48.456;-4.456;2022-10-31T04:50:23;6.00;;;5.00;;
74177;SDS011;62540;48.456;-4.456;2022-10-31T04:52:49;4.50;;;3.00;;
74177;SDS011;62540;48.456;-4.456;2022-10-31T04:55:14;1.00;;;1.00;;
74177;SDS011;62540;48.456;-4.456;2022-10-31T04:57:43;1.00;;;0.00;;
74177;SDS011;62540;48.456;-4.456;2022-10-31T05:00:10;0.50;;;0.50;;
74177;SDS011;62540;48.456;-4.456;2022-10-31T05:02:44;0.00;;;0.00;;
74177;SDS011;62540;48.456;-4.456;2022-10-31T05:05:11;0.00;;;0.00;;
74177;SDS011;62540;48.456;-4.456;2022-10-31T05:07:41;2.25;;;0.75;;
74177;SDS011;62540;48.456;-4.456;2022-10-31T05:10:08;1.00;;;1.00;;
74177;SDS011;62540;48.456;-4.456;2022-10-31T05:12:35;1.00;;;0.00;;
74177;SDS011;62540;48.456;-4.456;2022-10-31T05:15:00;1.25;;;0.00;;
74177;SDS011;62540;48.456;-4.456;2022-10-31T05:17:26;0.00;;;0.00;;
74177;SDS011;62540;48.456;-4.456;2022-10-31T05:19:51;1.00;;;0.00;;
74177;SDS011;62540;48.456;-4.456;2022-10-31T05:22:16;0.00;;;0.00;;
74177;SDS011;62540;48.456;-4.456;2022-10-31T05:24:42;0.00;;;0.00;;
74177;SDS011;62540;48.456;-4.456;2022-10-31T05:27:07;0.00;;;0.00;;
74177;SDS011;62540;48.456;-4.456;2022-10-31T05:29:33;3.00;;;1.00;;
74177;SDS011;62540;48.456;-4.456;2022-10-31T05:31:58;0.00;;;0.00;;
74177;SDS011;62540;48.456;-4.456;2022-10-31T05:34:24;0.00;;;0.00;;
74177;SDS011;62540;48.456;-4.456;2022-10-31T05:36:49;0.00;;;0.00;;
74177;SDS011;62540;48.456;-4.456;2022-10-31T05:39:15;2.00;;;0.00;;
74177;SDS011;62540;48.456;-4.456;2022-10-31T05:41:40;0.50;;;0.00;;
74177;SDS011;62540;48.456;-4.456;2022-10-31T05:44:06;2.00;;;0.75;;
74177;SDS011;62540;48.456;-4.456;2022-10-31T05:46:31;0.00;;;0.00;;
74177;SDS011;62540;48.456;-4.456;2022-10-31T05:48:56;0.75;;;0.00;;
74177;SDS011;62540;48.456;-4.456;2022-10-31T05:51:22;0.75;;;0.75;;
74177;SDS011;62540;48.456;-4.456;2022-10-31T05:53:47;0.00;;;0.00;;
74177;SDS011;62540;48.456;-4.456;2022-10-31T05:56:13;1.75;;;0.75;;
74177;SDS011;62540;48.456;-4.456;2022-10-31T05:58:38;0.00;;;0.00;;
74177;SDS011;62540;48.456;-4.456;2022-10-31T06:01:03;0.25;;;0.25;;
74177;SDS011;62540;48.456;-4.456;2022-10-31T06:03:30;0.75;;;0.00;;
74177;SDS011;62540;48.456;-4.456;2022-10-31T06:05:55;0.00;;;0.00;;
74177;SDS011;62540;48.456;-4.456;2022-10-31T06:08:21;1.00;;;1.00;;
74177;SDS011;62540;48.456;-4.456;2022-10-31T06:10:46;2.00;;;0.00;;
74177;SDS011;62540;48.456;-4.456;2022-10-31T06:13:12;1.50;;;0.00;;
74177;SDS011;62540;48.456;-4.456;2022-10-31T06:15:37;0.00;;;0.00;;
74177;SDS011;62540;48.456;-4.456;2022-10-31T06:18:04;2.00;;;0.75;;
74177;SDS011;62540;48.456;-4.456;2022-10-31T06:20:31;0.25;;;0.00;;
74177;SDS011;62540;48.456;-4.456;2022-10-31T06:22:57;1.00;;;0.25;;
74177;SDS011;62540;48.456;-4.456;2022-10-31T06:25:23;0.50;;;0.50;;
74177;SDS011;62540;48.456;-4.456;2022-10-31T06:27:48;1.00;;;1.00;;
74177;SDS011;62540;48.456;-4.456;2022-10-31T06:30:14;0.00;;;0.00;;
74177;SDS011;62540;48.456;-4.456;2022-10-31T06:32:40;0.00;;;0.00;;
74177;SDS011;62540;48.456;-4.456;2022-10-31T06:35:05;0.00;;;0.00;;
74177;SDS011;62540;48.456;-4.456;2022-10-31T06:37:31;1.00;;;0.00;;
74177;SDS011;62540;48.456;-4.456;2022-10-31T06:39:56;0.00;;;0.00;;
74177;SDS011;62540;48.456;-4.456;2022-10-31T06:42:21;0.50;;;0.50;;
74177;SDS011;62540;48.456;-4.456;2022-10-31T06:44:47;1.00;;;0.00;;
74177;SDS011;62540;48.456;-4.456;2022-10-31T06:47:12;0.75;;;0.00;;
74177;SDS011;62540;48.456;-4.456;2022-10-31T06:49:37;0.00;;;0.00;;
74177;SDS011;62540;48.456;-4.456;2022-10-31T06:52:03;1.00;;;0.00;;
74177;SDS011;62540;48.456;-4.456;2022-10-31T06:54:29;4.00;;;1.00;;
74177;SDS011;62540;48.456;-4.456;2022-10-31T06:56:55;1.25;;;0.00;;
74177;SDS011;62540;48.456;-4.456;2022-10-31T06:59:20;0.75;;;0.75;;
74177;SDS011;62540;48.456;-4.456;2022-10-31T07:01:46;0.00;;;0.00;;
74177;SDS011;62540;48.456;-4.456;2022-10-31T07:04:11;1.00;;;0.25;;
74177;SDS011;62540;48.456;-4.456;2022-10-31T07:06:37;1.25;;;0.00;;
74177;SDS011;62540;48.456;-4.456;2022-10-31T07:09:03;0.75;;;0.75;;
74177;SDS011;62540;48.456;-4.456;2022-10-31T07:11:29;0.00;;;0.00;;
74177;SDS011;62540;48.456;-4.456;2022-10-31T07:13:54;0.00;;;0.00;;
74177;SDS011;62540;48.456;-4.456;2022-10-31T07:16:20;1.00;;;0.00;;
74177;SDS011;62540;48.456;-4.456;2022-10-31T07:18:46;1.00;;;0.00;;
74177;SDS011;62540;48.456;-4.456;2022-10-31T07:21:11;0.50;;;0.00;;
74177;SDS011;62540;48.456;-4.456;2022-10-31T07:23:37;0.75;;;0.75;;
74177;SDS011;62540;48.456;-4.456;2022-10-31T07:26:02;1.75;;;0.75;;
74177;SDS011;62540;48.456;-4.456;2022-10-31T07:28:27;1.00;;;1.00;;
74177;SDS011;62540;48.456;-4.456;2022-10-31T07:30:54;0.00;;;0.00;;
74177;SDS011;62540;48.456;-4.456;2022-10-31T07:33:23;1.00;;;1.00;;
74177;SDS011;62540;48.456;-4.456;2022-10-31T07:35:51;1.00;;;0.00;;
74177;SDS011;62540;48.456;-4.456;2022-10-31T07:38:16;1.00;;;0.00;;
74177;SDS011;62540;48.456;-4.456;2022-10-31T07:40:41;0.25;;;0.00;;
74177;SDS011;62540;48.456;-4.456;2022-10-31T07:43:08;1.75;;;0.00;;
74177;SDS011;62540;48.456;-4.456;2022-10-31T07:45:35;0.00;;;0.00;;
74177;SDS011;62540;48.456;-4.456;2022-10-31T07:48:00;1.00;;;0.00;;
74177;SDS011;62540;48.456;-4.456;2022-10-31T07:50:30;0.00;;;0.00;;
74177;SDS011;62540;48.456;-4.456;2022-10-31T07:53:03;0.25;;;0.00;;
74177;SDS011;62540;48.456;-4.456;2022-10-31T07:55:30;2.00;;;1.00;;
74177;SDS011;62540;48.456;-4.456;2022-10-31T07:57:57;2.00;;;1.00;;
74177;SDS011;62540;48.456;-4.456;2022-10-31T08:00:30;0.00;;;0.00;;
74177;SDS011;62540;48.456;-4.456;2022-10-31T08:02:57;1.00;;;0.50;;
74177;SDS011;62540;48.456;-4.456;2022-10-31T08:05:27;0.00;;;0.00;;
74177;SDS011;62540;48.456;-4.456;2022-10-31T08:07:53;1.00;;;0.25;;
74177;SDS011;62540;48.456;-4.456;2022-10-31T08:10:18;0.25;;;0.00;;
74177;SDS011;62540;48.456;-4.456;2022-10-31T08:12:44;0.00;;;0.00;;
74177;SDS011;62540;48.456;-4.456;2022-10-31T08:15:10;0.00;;;0.00;;
74177;SDS011;62540;48.456;-4.456;2022-10-31T08:17:35;0.25;;;0.25;;
74177;SDS011;62540;48.456;-4.456;2022-10-31T08:20:02;0.00;;;0.00;;
74177;SDS011;62540;48.456;-4.456;2022-10-31T08:22:28;0.25;;;0.25;;
74177;SDS011;62540;48.456;-4.456;2022-10-31T08:24:54;1.00;;;0.00;;
74177;SDS011;62540;48.456;-4.456;2022-10-31T08:27:19;1.00;;;0.00;;
74177;SDS011;62540;48.456;-4.456;2022-10-31T08:29:44;0.75;;;0.75;;
74177;SDS011;62540;48.456;-4.456;2022-10-31T08:32:10;0.00;;;0.00;;
74177;SDS011;62540;48.456;-4.456;2022-10-31T08:34:35;0.75;;;0.00;;
74177;SDS011;62540;48.456;-4.456;2022-10-31T08:37:01;1.00;;;0.50;;
74177;SDS011;62540;48.456;-4.456;2022-10-31T08:39:26;1.00;;;1.00;;
74177;SDS011;62540;48.456;-4.456;2022-10-31T08:41:51;0.75;;;0.75;;
74177;SDS011;62540;48.456;-4.456;2022-10-31T08:44:17;0.50;;;0.00;;
74177;SDS011;62540;48.456;-4.456;2022-10-31T08:46:42;0.75;;;0.00;;
74177;SDS011;62540;48.456;-4.456;2022-10-31T08:49:07;1.75;;;0.75;;
74177;SDS011;62540;48.456;-4.456;2022-10-31T08:51:33;2.00;;;1.25;;
74177;SDS011;62540;48.456;-4.456;2022-10-31T08:53:58;0.00;;;0.00;;
74177;SDS011;62540;48.456;-4.456;2022-10-31T08:56:25;1.00;;;1.00;;
74177;SDS011;62540;48.456;-4.456;2022-10-31T08:58:52;1.25;;;1.00;;
74177;SDS011;62540;48.456;-4.456;2022-10-31T09:01:18;0.50;;;0.00;;
74177;SDS011;62540;48.456;-4.456;2022-10-31T09:03:44;1.00;;;0.00;;
74177;SDS011;62540;48.456;-4.456;2022-10-31T09:06:09;0.00;;;0.00;;
74177;SDS011;62540;48.456;-4.456;2022-10-31T09:08:35;1.25;;;1.25;;
74177;SDS011;62540;48.456;-4.456;2022-10-31T09:11:01;0.50;;;0.50;;
74177;SDS011;62540;48.456;-4.456;2022-10-31T09:13:26;0.75;;;0.75;;
74177;SDS011;62540;48.456;-4.456;2022-10-31T09:15:52;1.00;;;1.00;;
74177;SDS011;62540;48.456;-4.456;2022-10-31T09:18:21;0.25;;;0.25;;
74177;SDS011;62540;48.456;-4.456;2022-10-31T09:20:48;1.00;;;1.00;;
74177;SDS011;62540;48.456;-4.456;2022-10-31T09:23:15;1.00;;;1.00;;
74177;SDS011;62540;48.456;-4.456;2022-10-31T09:25:43;1.00;;;1.00;;
74177;SDS011;62540;48.456;-4.456;2022-10-31T09:28:10;1.50;;;1.00;;
74177;SDS011;62540;48.456;-4.456;2022-10-31T09:30:37;0.75;;;0.75;;
74177;SDS011;62540;48.456;-4.456;2022-10-31T09:33:03;0.00;;;0.00;;
74177;SDS011;62540;48.456;-4.456;2022-10-31T09:35:31;1.50;;;1.00;;
74177;SDS011;62540;48.456;-4.456;2022-10-31T09:37:58;1.00;;;0.00;;
74177;SDS011;62540;48.456;-4.456;2022-10-31T09:40:27;2.00;;;1.00;;
74177;SDS011;62540;48.456;-4.456;2022-10-31T09:48:44;1.00;;;0.25;;
74177;SDS011;62540;48.456;-4.456;2022-10-31T09:51:25;0.75;;;0.25;;
74177;SDS011;62540;48.456;-4.456;2022-10-31T09:54:02;1.75;;;1.00;;
74177;SDS011;62540;48.456;-4.456;2022-10-31T09:56:34;1.25;;;0.00;;
74177;SDS011;62540;48.456;-4.456;2022-10-31T09:59:01;0.25;;;0.00;;
74177;SDS011;62540;48.456;-4.456;2022-10-31T10:01:33;1.00;;;0.00;;
74177;SDS011;62540;48.456;-4.456;2022-10-31T10:04:44;0.00;;;0.00;;
74177;SDS011;62540;48.456;-4.456;2022-10-31T10:06:54;0.00;;;0.00;;
74177;SDS011;62540;48.456;-4.456;2022-10-31T10:09:22;0.75;;;0.00;;
74177;SDS011;62540;48.456;-4.456;2022-10-31T10:23:21;0.00;;;0.00;;
74177;SDS011;62540;48.456;-4.456;2022-10-31T10:25:55;0.75;;;0.00;;
74177;SDS011;62540;48.456;-4.456;2022-10-31T10:28:35;0.00;;;0.00;;
74177;SDS011;62540;48.456;-4.456;2022-10-31T10:31:06;0.00;;;0.00;;
74177;SDS011;62540;48.456;-4.456;2022-10-31T10:33:41;0.25;;;0.25;;
74177;SDS011;62540;48.456;-4.456;2022-10-31T10:36:14;0.25;;;0.25;;
74177;SDS011;62540;48.456;-4.456;2022-10-31T10:38:51;0.00;;;0.00;;
74177;SDS011;62540;48.456;-4.456;2022-10-31T10:41:22;0.00;;;0.00;;
74177;SDS011;62540;48.456;-4.456;2022-10-31T10:43:49;0.00;;;0.00;;
74177;SDS011;62540;48.456;-4.456;2022-10-31T10:54:06;0.00;;;0.00;;
74177;SDS011;62540;48.456;-4.456;2022-10-31T10:59:21;0.00;;;0.00;;
74177;SDS011;62540;48.456;-4.456;2022-10-31T11:01:48;1.00;;;1.00;;
74177;SDS011;62540;48.456;-4.456;2022-10-31T11:04:32;0.25;;;0.00;;
74177;SDS011;62540;48.456;-4.456;2022-10-31T11:09:24;1.00;;;1.00;;
74177;SDS011;62540;48.456;-4.456;2022-10-31T11:11:50;1.00;;;1.00;;
74177;SDS011;62540;48.456;-4.456;2022-10-31T11:14:16;1.00;;;1.00;;
74177;SDS011;62540;48.456;-4.456;2022-10-31T11:16:43;1.00;;;1.00;;
74177;SDS011;62540;48.456;-4.456;2022-10-31T11:21:39;0.25;;;0.25;;
74177;SDS011;62540;48.456;-4.456;2022-10-31T11:26:33;2.25;;;1.00;;
74177;SDS011;62540;48.456;-4.456;2022-10-31T11:29:00;2.00;;;1.75;;
74177;SDS011;62540;48.456;-4.456;2022-10-31T11:31:28;2.25;;;1.25;;
74177;SDS011;62540;48.456;-4.456;2022-10-31T11:33:58;1.00;;;1.00;;
74177;SDS011;62540;48.456;-4.456;2022-10-31T11:36:27;1.50;;;1.00;;
74177;SDS011;62540;48.456;-4.456;2022-10-31T11:38:55;2.00;;;2.00;;
74177;SDS011;62540;48.456;-4.456;2022-10-31T11:41:30;3.00;;;2.00;;
74177;SDS011;62540;48.456;-4.456;2022-10-31T11:43:59;1.00;;;1.00;;
74177;SDS011;62540;48.456;-4.456;2022-10-31T11:48:58;2.00;;;1.00;;
74177;SDS011;62540;48.456;-4.456;2022-10-31T11:51:26;3.75;;;1.50;;
74177;SDS011;62540;48.456;-4.456;2022-10-31T11:53:57;1.75;;;1.00;;
74177;SDS011;62540;48.456;-4.456;2022-10-31T11:56:24;2.50;;;2.00;;
74177;SDS011;62540;48.456;-4.456;2022-10-31T11:59:01;3.25;;;2.00;;
74177;SDS011;62540;48.456;-4.456;2022-10-31T12:01:29;3.25;;;2.25;;
74177;SDS011;62540;48.456;-4.456;2022-10-31T12:04:02;2.50;;;2.00;;
74177;SDS011;62540;48.456;-4.456;2022-10-31T12:06:34;2.00;;;2.00;;
74177;SDS011;62540;48.456;-4.456;2022-10-31T12:09:01;2.25;;;2.25;;
74177;SDS011;62540;48.456;-4.456;2022-10-31T12:28:28;4.25;;;3.25;;
74177;SDS011;62540;48.456;-4.456;2022-10-31T12:31:34;4.25;;;4.00;;
74177;SDS011;62540;48.456;-4.456;2022-10-31T12:37:06;4.75;;;4.50;;
74177;SDS011;62540;48.456;-4.456;2022-10-31T12:48:33;5.75;;;4.25;;
74177;SDS011;62540;48.456;-4.456;2022-10-31T12:51:14;8.00;;;6.25;;
74177;SDS011;62540;48.456;-4.456;2022-10-31T12:53:53;7.00;;;6.00;;
74177;SDS011;62540;48.456;-4.456;2022-10-31T12:56:35;8.00;;;8.00;;
74177;SDS011;62540;48.456;-4.456;2022-10-31T12:59:29;3.25;;;3.00;;
74177;SDS011;62540;48.456;-4.456;2022-10-31T13:02:01;7.50;;;7.50;;
74177;SDS011;62540;48.456;-4.456;2022-10-31T13:04:40;8.25;;;6.00;;
74177;SDS011;62540;48.456;-4.456;2022-10-31T13:07:17;9.75;;;8.25;;
74177;SDS011;62540;48.456;-4.456;2022-10-31T13:12:29;6.50;;;5.75;;
74177;SDS011;62540;48.456;-4.456;2022-10-31T13:14:58;7.00;;;5.50;;
74177;SDS011;62540;48.456;-4.456;2022-10-31T13:17:30;7.00;;;4.00;;
74177;SDS011;62540;48.456;-4.456;2022-10-31T13:20:14;6.00;;;6.00;;
74177;SDS011;62540;48.456;-4.456;2022-10-31T13:25:53;11.00;;;7.75;;
74177;SDS011;62540;48.456;-4.456;2022-10-31T13:28:37;9.00;;;7.50;;
74177;SDS011;62540;48.456;-4.456;2022-10-31T13:31:04;6.50;;;6.00;;
74177;SDS011;62540;48.456;-4.456;2022-10-31T13:33:30;8.50;;;8.00;;
74177;SDS011;62540;48.456;-4.456;2022-10-31T13:38:46;9.50;;;8.00;;
74177;SDS011;62540;48.456;-4.456;2022-10-31T13:44:18;7.25;;;6.25;;
74177;SDS011;62540;48.456;-4.456;2022-10-31T13:46:49;6.25;;;6.25;;
74177;SDS011;62540;48.456;-4.456;2022-10-31T13:59:53;8.75;;;7.00;;
74177;SDS011;62540;48.456;-4.456;2022-10-31T14:02:28;8.25;;;5.75;;
74177;SDS011;62540;48.456;-4.456;2022-10-31T14:04:57;10.25;;;7.50;;
74177;SDS011;62540;48.456;-4.456;2022-10-31T14:07:25;8.00;;;7.25;;
74177;SDS011;62540;48.456;-4.456;2022-10-31T14:12:27;7.50;;;6.00;;
74177;SDS011;62540;48.456;-4.456;2022-10-31T14:15:16;8.50;;;8.25;;
74177;SDS011;62540;48.456;-4.456;2022-10-31T14:17:46;4.75;;;4.50;;
74177;SDS011;62540;48.456;-4.456;2022-10-31T14:22:39;10.25;;;6.00;;
74177;SDS011;62540;48.456;-4.456;2022-10-31T14:27:50;5.50;;;5.50;;
74177;SDS011;62540;48.456;-4.456;2022-10-31T14:30:18;4.50;;;3.00;;
74177;SDS011;62540;48.456;-4.456;2022-10-31T14:32:50;3.75;;;3.50;;
74177;SDS011;62540;48.456;-4.456;2022-10-31T14:35:18;5.25;;;5.25;;
74177;SDS011;62540;48.456;-4.456;2022-10-31T14:51:19;4.75;;;4.00;;
74177;SDS011;62540;48.456;-4.456;2022-10-31T14:53:51;4.00;;;3.00;;
74177;SDS011;62540;48.456;-4.456;2022-10-31T14:56:32;4.00;;;3.00;;
74177;SDS011;62540;48.456;-4.456;2022-10-31T14:59:00;3.50;;;2.50;;
74177;SDS011;62540;48.456;-4.456;2022-10-31T15:01:30;5.00;;;4.75;;
74177;SDS011;62540;48.456;-4.456;2022-10-31T15:03:58;3.25;;;3.25;;
74177;SDS011;62540;48.456;-4.456;2022-10-31T15:06:29;4.00;;;4.00;;
74177;SDS011;62540;48.456;-4.456;2022-10-31T15:09:05;4.25;;;3.00;;
74177;SDS011;62540;48.456;-4.456;2022-10-31T15:11:35;3.75;;;3.50;;
74177;SDS011;62540;48.456;-4.456;2022-10-31T15:14:05;5.25;;;3.50;;
74177;SDS011;62540;48.456;-4.456;2022-10-31T15:16:46;3.75;;;2.75;;
74177;SDS011;62540;48.456;-4.456;2022-10-31T15:19:13;3.00;;;2.50;;
74177;SDS011;62540;48.456;-4.456;2022-10-31T15:21:45;1.00;;;1.00;;
74177;SDS011;62540;48.456;-4.456;2022-10-31T15:24:11;0.00;;;0.00;;
74177;SDS011;62540;48.456;-4.456;2022-10-31T15:26:43;2.00;;;1.00;;
74177;SDS011;62540;48.456;-4.456;2022-10-31T15:29:11;1.00;;;0.00;;
74177;SDS011;62540;48.456;-4.456;2022-10-31T15:31:38;1.00;;;0.75;;
74177;SDS011;62540;48.456;-4.456;2022-10-31T15:34:19;0.00;;;0.00;;
74177;SDS011;62540;48.456;-4.456;2022-10-31T15:36:50;0.00;;;0.00;;
74177;SDS011;62540;48.456;-4.456;2022-10-31T15:39:15;0.00;;;0.00;;
74177;SDS011;62540;48.456;-4.456;2022-10-31T15:41:47;1.00;;;1.00;;
74177;SDS011;62540;48.456;-4.456;2022-10-31T15:44:18;1.00;;;1.00;;
74177;SDS011;62540;48.456;-4.456;2022-10-31T15:46:52;0.75;;;0.75;;
74177;SDS011;62540;48.456;-4.456;2022-10-31T15:52:15;0.75;;;0.75;;
74177;SDS011;62540;48.456;-4.456;2022-10-31T15:54:51;1.75;;;0.75;;
74177;SDS011;62540;48.456;-4.456;2022-10-31T15:57:20;1.00;;;1.00;;
74177;SDS011;62540;48.456;-4.456;2022-10-31T15:59:47;3.00;;;1.25;;
74177;SDS011;62540;48.456;-4.456;2022-10-31T16:02:14;2.75;;;1.00;;
74177;SDS011;62540;48.456;-4.456;2022-10-31T16:04:51;0.00;;;0.00;;
74177;SDS011;62540;48.456;-4.456;2022-10-31T16:07:22;3.25;;;1.75;;
74177;SDS011;62540;48.456;-4.456;2022-10-31T16:09:53;3.00;;;2.75;;
74177;SDS011;62540;48.456;-4.456;2022-10-31T16:12:19;2.00;;;1.50;;
74177;SDS011;62540;48.456;-4.456;2022-10-31T16:14:46;1.75;;;0.75;;
74177;SDS011;62540;48.456;-4.456;2022-10-31T16:17:12;4.00;;;2.00;;
74177;SDS011;62540;48.456;-4.456;2022-10-31T16:19:57;2.75;;;2.25;;
74177;SDS011;62540;48.456;-4.456;2022-10-31T16:22:47;1.75;;;1.75;;
74177;SDS011;62540;48.456;-4.456;2022-10-31T16:25:14;2.00;;;2.00;;
74177;SDS011;62540;48.456;-4.456;2022-10-31T16:28:04;2.00;;;2.00;;
74177;SDS011;62540;48.456;-4.456;2022-10-31T16:33:04;0.50;;;0.50;;
74177;SDS011;62540;48.456;-4.456;2022-10-31T16:35:45;5.50;;;2.75;;
74177;SDS011;62540;48.456;-4.456;2022-10-31T16:38:10;2.75;;;2.00;;
74177;SDS011;62540;48.456;-4.456;2022-10-31T16:40:37;1.00;;;0.00;;
74177;SDS011;62540;48.456;-4.456;2022-10-31T16:43:03;0.75;;;0.25;;
74177;SDS011;62540;48.456;-4.456;2022-10-31T16:45:29;2.00;;;1.00;;
74177;SDS011;62540;48.456;-4.456;2022-10-31T16:48:04;1.75;;;1.00;;
74177;SDS011;62540;48.456;-4.456;2022-10-31T16:50:31;3.25;;;2.00;;
74177;SDS011;62540;48.456;-4.456;2022-10-31T16:52:57;2.25;;;1.75;;
74177;SDS011;62540;48.456;-4.456;2022-10-31T16:55:23;3.25;;;0.75;;
74177;SDS011;62540;48.456;-4.456;2022-10-31T16:57:50;0.75;;;0.75;;
74177;SDS011;62540;48.456;-4.456;2022-10-31T17:00:24;1.25;;;1.00;;
74177;SDS011;62540;48.456;-4.456;2022-10-31T17:02:52;1.00;;;1.00;;
74177;SDS011;62540;48.456;-4.456;2022-10-31T17:05:20;0.75;;;0.50;;
74177;SDS011;62540;48.456;-4.456;2022-10-31T17:07:46;2.00;;;0.75;;
74177;SDS011;62540;48.456;-4.456;2022-10-31T17:10:13;1.25;;;0.00;;
74177;SDS011;62540;48.456;-4.456;2022-10-31T17:12:40;1.00;;;0.00;;